Odiliapeel, Netherlands
Current Conditions -  °F | °C
As of 11:25 PM on Wednesday 28 Jan 2015 (Local Time) from EHVK Reporting Station
Broken Clouds Broken Clouds  
Wind Chill: 29°   Ceiling: 6700
Heat Index: 37°   Visibility: 6mi
Dew Point: 28°   Wind: 13mph
Humidity: 70%   Direction: 250°WSW
Pressure: 29.44"   Gusts: NA
Location:  51.64°N, 5.71°E
Report Text: EHVK 282225Z AUTO 25011KT 9999 FEW052 SCT058 BKN067 03/M02 Q0997 BLU
Loading
Personal Weather Stations






























Interactive Weather Map New forecast layout! Learn more

10-Day Weather Forecast

Advertisements
Track Severe Weather on mobile